sensor_id;sensor_type;location;lat;lon;timestamp;P1;durP1;ratioP1;P2;durP2;ratioP2
67156;SDS011;54086;50.126;8.710;2023-05-20T00:00:05;7.93;;;3.13;;
67156;SDS011;54086;50.126;8.710;2023-05-20T00:02:31;5.75;;;2.30;;
67156;SDS011;54086;50.126;8.710;2023-05-20T00:04:57;5.88;;;2.58;;
67156;SDS011;54086;50.126;8.710;2023-05-20T00:07:22;6.53;;;2.57;;
67156;SDS011;54086;50.126;8.710;2023-05-20T00:09:48;5.67;;;2.47;;
67156;SDS011;54086;50.126;8.710;2023-05-20T00:12:13;7.23;;;2.50;;
67156;SDS011;54086;50.126;8.710;2023-05-20T00:14:38;6.25;;;2.50;;
67156;SDS011;54086;50.126;8.710;2023-05-20T00:17:04;6.67;;;2.67;;
67156;SDS011;54086;50.126;8.710;2023-05-20T00:19:29;6.20;;;2.50;;
67156;SDS011;54086;50.126;8.710;2023-05-20T00:21:54;7.20;;;2.67;;
67156;SDS011;54086;50.126;8.710;2023-05-20T00:24:21;7.07;;;2.80;;
67156;SDS011;54086;50.126;8.710;2023-05-20T00:26:47;6.70;;;2.43;;
67156;SDS011;54086;50.126;8.710;2023-05-20T00:29:12;7.80;;;2.80;;
67156;SDS011;54086;50.126;8.710;2023-05-20T00:31:38;8.20;;;2.90;;
67156;SDS011;54086;50.126;8.710;2023-05-20T00:34:03;6.27;;;2.50;;
67156;SDS011;54086;50.126;8.710;2023-05-20T00:36:28;7.70;;;2.70;;
67156;SDS011;54086;50.126;8.710;2023-05-20T00:38:55;6.60;;;2.50;;
67156;SDS011;54086;50.126;8.710;2023-05-20T00:41:20;6.60;;;2.80;;
67156;SDS011;54086;50.126;8.710;2023-05-20T00:43:46;6.87;;;2.70;;
67156;SDS011;54086;50.126;8.710;2023-05-20T00:46:11;5.70;;;2.63;;
67156;SDS011;54086;50.126;8.710;2023-05-20T00:48:39;6.63;;;2.30;;
67156;SDS011;54086;50.126;8.710;2023-05-20T00:51:05;8.07;;;2.40;;
67156;SDS011;54086;50.126;8.710;2023-05-20T00:53:31;6.20;;;2.67;;
67156;SDS011;54086;50.126;8.710;2023-05-20T00:55:58;7.35;;;2.90;;
67156;SDS011;54086;50.126;8.710;2023-05-20T00:58:24;8.60;;;2.77;;
67156;SDS011;54086;50.126;8.710;2023-05-20T01:00:50;6.13;;;2.60;;
67156;SDS011;54086;50.126;8.710;2023-05-20T01:03:15;8.27;;;2.90;;
67156;SDS011;54086;50.126;8.710;2023-05-20T01:05:41;8.27;;;3.03;;
67156;SDS011;54086;50.126;8.710;2023-05-20T01:08:07;7.70;;;2.83;;
67156;SDS011;54086;50.126;8.710;2023-05-20T01:10:32;7.23;;;3.13;;
67156;SDS011;54086;50.126;8.710;2023-05-20T01:13:02;7.60;;;3.00;;
67156;SDS011;54086;50.126;8.710;2023-05-20T01:15:32;6.53;;;2.95;;
67156;SDS011;54086;50.126;8.710;2023-05-20T01:18:00;6.55;;;2.72;;
67156;SDS011;54086;50.126;8.710;2023-05-20T01:20:29;6.38;;;2.97;;
67156;SDS011;54086;50.126;8.710;2023-05-20T01:22:56;8.37;;;2.90;;
67156;SDS011;54086;50.126;8.710;2023-05-20T01:25:22;9.07;;;2.60;;
67156;SDS011;54086;50.126;8.710;2023-05-20T01:27:51;6.95;;;2.72;;
67156;SDS011;54086;50.126;8.710;2023-05-20T01:30:19;7.65;;;2.85;;
67156;SDS011;54086;50.126;8.710;2023-05-20T01:32:46;7.30;;;2.97;;
67156;SDS011;54086;50.126;8.710;2023-05-20T01:35:15;6.23;;;2.67;;
67156;SDS011;54086;50.126;8.710;2023-05-20T01:37:41;8.40;;;3.35;;
67156;SDS011;54086;50.126;8.710;2023-05-20T01:40:07;6.97;;;2.85;;
67156;SDS011;54086;50.126;8.710;2023-05-20T01:42:34;7.80;;;2.70;;
67156;SDS011;54086;50.126;8.710;2023-05-20T01:45:00;10.45;;;3.05;;
67156;SDS011;54086;50.126;8.710;2023-05-20T01:47:27;7.13;;;2.83;;
67156;SDS011;54086;50.126;8.710;2023-05-20T01:49:52;7.93;;;2.70;;
67156;SDS011;54086;50.126;8.710;2023-05-20T01:52:21;8.33;;;2.80;;
67156;SDS011;54086;50.126;8.710;2023-05-20T01:54:47;7.05;;;2.95;;
67156;SDS011;54086;50.126;8.710;2023-05-20T01:57:18;7.50;;;2.92;;
67156;SDS011;54086;50.126;8.710;2023-05-20T01:59:45;6.43;;;2.60;;
67156;SDS011;54086;50.126;8.710;2023-05-20T02:02:11;6.35;;;2.70;;
67156;SDS011;54086;50.126;8.710;2023-05-20T02:04:37;8.80;;;2.90;;
67156;SDS011;54086;50.126;8.710;2023-05-20T02:07:02;6.47;;;2.53;;
67156;SDS011;54086;50.126;8.710;2023-05-20T02:09:28;7.97;;;3.43;;
67156;SDS011;54086;50.126;8.710;2023-05-20T02:11:53;8.93;;;2.77;;
67156;SDS011;54086;50.126;8.710;2023-05-20T02:14:18;6.53;;;2.90;;
67156;SDS011;54086;50.126;8.710;2023-05-20T02:16:45;7.43;;;2.77;;
67156;SDS011;54086;50.126;8.710;2023-05-20T02:19:11;6.85;;;3.08;;
67156;SDS011;54086;50.126;8.710;2023-05-20T02:21:38;8.30;;;2.90;;
67156;SDS011;54086;50.126;8.710;2023-05-20T02:24:04;8.02;;;3.20;;
67156;SDS011;54086;50.126;8.710;2023-05-20T02:26:33;6.70;;;3.13;;
67156;SDS011;54086;50.126;8.710;2023-05-20T02:28:59;6.10;;;2.50;;
67156;SDS011;54086;50.126;8.710;2023-05-20T02:31:24;8.25;;;3.35;;
67156;SDS011;54086;50.126;8.710;2023-05-20T02:33:50;6.30;;;2.73;;
67156;SDS011;54086;50.126;8.710;2023-05-20T02:36:15;7.17;;;3.20;;
67156;SDS011;54086;50.126;8.710;2023-05-20T02:38:41;7.63;;;3.10;;
67156;SDS011;54086;50.126;8.710;2023-05-20T02:41:07;9.10;;;2.83;;
67156;SDS011;54086;50.126;8.710;2023-05-20T02:43:32;6.30;;;2.83;;
67156;SDS011;54086;50.126;8.710;2023-05-20T02:45:58;7.07;;;3.10;;
67156;SDS011;54086;50.126;8.710;2023-05-20T02:48:23;7.57;;;3.40;;
67156;SDS011;54086;50.126;8.710;2023-05-20T02:50:48;8.10;;;3.40;;
67156;SDS011;54086;50.126;8.710;2023-05-20T02:53:14;7.33;;;3.50;;
67156;SDS011;54086;50.126;8.710;2023-05-20T02:55:39;7.53;;;3.10;;
67156;SDS011;54086;50.126;8.710;2023-05-20T02:58:05;7.13;;;3.20;;
67156;SDS011;54086;50.126;8.710;2023-05-20T03:00:30;7.20;;;2.70;;
67156;SDS011;54086;50.126;8.710;2023-05-20T03:02:56;7.65;;;2.85;;
67156;SDS011;54086;50.126;8.710;2023-05-20T03:05:23;7.13;;;3.33;;
67156;SDS011;54086;50.126;8.710;2023-05-20T03:07:48;8.33;;;3.50;;
67156;SDS011;54086;50.126;8.710;2023-05-20T03:10:14;7.17;;;3.37;;
67156;SDS011;54086;50.126;8.710;2023-05-20T03:12:40;7.70;;;3.22;;
67156;SDS011;54086;50.126;8.710;2023-05-20T03:15:05;8.70;;;3.40;;
67156;SDS011;54086;50.126;8.710;2023-05-20T03:17:31;6.80;;;3.40;;
67156;SDS011;54086;50.126;8.710;2023-05-20T03:19:57;7.33;;;3.47;;
67156;SDS011;54086;50.126;8.710;2023-05-20T03:22:22;10.83;;;3.80;;
67156;SDS011;54086;50.126;8.710;2023-05-20T03:24:47;6.60;;;3.23;;
67156;SDS011;54086;50.126;8.710;2023-05-20T03:27:13;7.67;;;3.53;;
67156;SDS011;54086;50.126;8.710;2023-05-20T03:29:38;8.20;;;3.63;;
67156;SDS011;54086;50.126;8.710;2023-05-20T03:32:03;7.40;;;3.10;;
67156;SDS011;54086;50.126;8.710;2023-05-20T03:34:29;8.95;;;3.90;;
67156;SDS011;54086;50.126;8.710;2023-05-20T03:36:58;7.10;;;3.40;;
67156;SDS011;54086;50.126;8.710;2023-05-20T03:39:24;7.35;;;3.53;;
67156;SDS011;54086;50.126;8.710;2023-05-20T03:41:49;7.63;;;3.57;;
67156;SDS011;54086;50.126;8.710;2023-05-20T03:44:15;6.73;;;3.40;;
67156;SDS011;54086;50.126;8.710;2023-05-20T03:46:40;8.13;;;3.53;;
67156;SDS011;54086;50.126;8.710;2023-05-20T03:49:06;7.93;;;3.57;;
67156;SDS011;54086;50.126;8.710;2023-05-20T03:51:31;8.10;;;3.40;;
67156;SDS011;54086;50.126;8.710;2023-05-20T03:53:56;7.77;;;3.73;;
67156;SDS011;54086;50.126;8.710;2023-05-20T03:56:22;7.77;;;3.50;;
67156;SDS011;54086;50.126;8.710;2023-05-20T03:58:47;8.10;;;3.60;;
67156;SDS011;54086;50.126;8.710;2023-05-20T04:01:13;7.77;;;3.87;;
67156;SDS011;54086;50.126;8.710;2023-05-20T04:03:39;7.22;;;3.58;;
67156;SDS011;54086;50.126;8.710;2023-05-20T04:06:06;7.93;;;3.75;;
67156;SDS011;54086;50.126;8.710;2023-05-20T04:08:31;8.40;;;4.00;;
67156;SDS011;54086;50.126;8.710;2023-05-20T04:10:57;7.73;;;3.80;;
67156;SDS011;54086;50.126;8.710;2023-05-20T04:13:23;7.73;;;3.50;;
67156;SDS011;54086;50.126;8.710;2023-05-20T04:15:49;8.20;;;3.97;;
67156;SDS011;54086;50.126;8.710;2023-05-20T04:18:17;7.43;;;3.90;;
67156;SDS011;54086;50.126;8.710;2023-05-20T04:20:42;9.05;;;3.95;;
67156;SDS011;54086;50.126;8.710;2023-05-20T04:23:08;8.47;;;3.93;;
67156;SDS011;54086;50.126;8.710;2023-05-20T04:25:34;9.00;;;3.80;;
67156;SDS011;54086;50.126;8.710;2023-05-20T04:28:00;8.80;;;4.20;;
67156;SDS011;54086;50.126;8.710;2023-05-20T04:30:25;8.65;;;3.72;;
67156;SDS011;54086;50.126;8.710;2023-05-20T04:32:51;14.00;;;4.30;;
67156;SDS011;54086;50.126;8.710;2023-05-20T04:35:17;8.85;;;4.13;;
67156;SDS011;54086;50.126;8.710;2023-05-20T04:37:43;10.27;;;4.10;;
67156;SDS011;54086;50.126;8.710;2023-05-20T04:42:43;7.97;;;4.18;;
67156;SDS011;54086;50.126;8.710;2023-05-20T04:45:08;12.03;;;4.20;;
67156;SDS011;54086;50.126;8.710;2023-05-20T04:47:34;8.52;;;4.05;;
67156;SDS011;54086;50.126;8.710;2023-05-20T04:50:02;9.38;;;4.25;;
67156;SDS011;54086;50.126;8.710;2023-05-20T04:52:34;10.43;;;4.53;;
67156;SDS011;54086;50.126;8.710;2023-05-20T04:55:00;10.53;;;4.20;;
67156;SDS011;54086;50.126;8.710;2023-05-20T04:57:26;8.23;;;4.55;;
67156;SDS011;54086;50.126;8.710;2023-05-20T04:59:51;8.03;;;4.40;;
67156;SDS011;54086;50.126;8.710;2023-05-20T05:02:17;10.07;;;4.23;;
67156;SDS011;54086;50.126;8.710;2023-05-20T05:04:42;9.70;;;4.03;;
67156;SDS011;54086;50.126;8.710;2023-05-20T05:07:07;12.23;;;4.60;;
67156;SDS011;54086;50.126;8.710;2023-05-20T05:09:33;9.33;;;4.30;;
67156;SDS011;54086;50.126;8.710;2023-05-20T05:11:58;8.93;;;3.90;;
67156;SDS011;54086;50.126;8.710;2023-05-20T05:14:24;11.43;;;4.47;;
67156;SDS011;54086;50.126;8.710;2023-05-20T05:16:49;9.73;;;4.70;;
67156;SDS011;54086;50.126;8.710;2023-05-20T05:19:15;8.70;;;4.33;;
67156;SDS011;54086;50.126;8.710;2023-05-20T05:21:40;9.60;;;4.23;;
67156;SDS011;54086;50.126;8.710;2023-05-20T05:24:05;10.30;;;4.30;;
67156;SDS011;54086;50.126;8.710;2023-05-20T05:26:31;8.50;;;4.10;;
67156;SDS011;54086;50.126;8.710;2023-05-20T05:28:57;8.52;;;4.40;;
67156;SDS011;54086;50.126;8.710;2023-05-20T05:31:22;8.53;;;4.17;;
67156;SDS011;54086;50.126;8.710;2023-05-20T05:33:48;7.93;;;4.23;;
67156;SDS011;54086;50.126;8.710;2023-05-20T05:36:14;9.20;;;4.60;;
67156;SDS011;54086;50.126;8.710;2023-05-20T05:38:39;10.27;;;4.67;;
67156;SDS011;54086;50.126;8.710;2023-05-20T05:41:05;11.02;;;4.78;;
67156;SDS011;54086;50.126;8.710;2023-05-20T05:43:33;10.27;;;4.43;;
67156;SDS011;54086;50.126;8.710;2023-05-20T05:45:59;11.05;;;4.82;;
67156;SDS011;54086;50.126;8.710;2023-05-20T05:48:24;9.37;;;4.73;;
67156;SDS011;54086;50.126;8.710;2023-05-20T05:50:49;9.53;;;5.03;;
67156;SDS011;54086;50.126;8.710;2023-05-20T05:53:15;9.93;;;5.20;;
67156;SDS011;54086;50.126;8.710;2023-05-20T05:55:40;9.88;;;4.80;;
67156;SDS011;54086;50.126;8.710;2023-05-20T05:58:06;10.83;;;4.80;;
67156;SDS011;54086;50.126;8.710;2023-05-20T06:00:31;8.30;;;4.73;;
67156;SDS011;54086;50.126;8.710;2023-05-20T06:02:56;9.43;;;4.83;;
67156;SDS011;54086;50.126;8.710;2023-05-20T06:05:22;10.50;;;4.93;;
67156;SDS011;54086;50.126;8.710;2023-05-20T06:07:47;11.17;;;5.13;;
67156;SDS011;54086;50.126;8.710;2023-05-20T06:10:13;12.63;;;5.40;;
67156;SDS011;54086;50.126;8.710;2023-05-20T06:12:38;11.70;;;5.32;;
67156;SDS011;54086;50.126;8.710;2023-05-20T06:15:04;11.30;;;5.37;;
67156;SDS011;54086;50.126;8.710;2023-05-20T06:17:31;11.05;;;6.00;;
67156;SDS011;54086;50.126;8.710;2023-05-20T06:19:57;9.30;;;5.30;;
67156;SDS011;54086;50.126;8.710;2023-05-20T06:22:22;10.13;;;5.30;;
67156;SDS011;54086;50.126;8.710;2023-05-20T06:24:48;11.67;;;5.47;;
67156;SDS011;54086;50.126;8.710;2023-05-20T06:27:14;11.05;;;5.82;;
67156;SDS011;54086;50.126;8.710;2023-05-20T06:29:39;9.97;;;5.87;;
67156;SDS011;54086;50.126;8.710;2023-05-20T06:32:05;9.95;;;5.45;;
67156;SDS011;54086;50.126;8.710;2023-05-20T06:34:31;12.20;;;5.40;;
67156;SDS011;54086;50.126;8.710;2023-05-20T06:36:57;12.27;;;6.10;;
67156;SDS011;54086;50.126;8.710;2023-05-20T06:39:23;10.07;;;5.50;;
67156;SDS011;54086;50.126;8.710;2023-05-20T06:41:49;10.07;;;5.53;;
67156;SDS011;54086;50.126;8.710;2023-05-20T06:44:16;10.02;;;5.90;;
67156;SDS011;54086;50.126;8.710;2023-05-20T06:46:41;11.63;;;5.87;;
67156;SDS011;54086;50.126;8.710;2023-05-20T06:49:07;9.73;;;5.82;;
67156;SDS011;54086;50.126;8.710;2023-05-20T06:51:32;12.73;;;6.03;;
67156;SDS011;54086;50.126;8.710;2023-05-20T06:53:58;9.53;;;5.57;;
67156;SDS011;54086;50.126;8.710;2023-05-20T06:56:23;12.20;;;5.85;;
67156;SDS011;54086;50.126;8.710;2023-05-20T06:58:48;12.60;;;5.80;;
67156;SDS011;54086;50.126;8.710;2023-05-20T07:01:14;12.00;;;6.40;;
67156;SDS011;54086;50.126;8.710;2023-05-20T07:03:39;9.55;;;5.70;;
67156;SDS011;54086;50.126;8.710;2023-05-20T07:06:06;10.67;;;6.00;;
67156;SDS011;54086;50.126;8.710;2023-05-20T07:08:32;13.80;;;6.80;;
67156;SDS011;54086;50.126;8.710;2023-05-20T07:10:57;14.80;;;6.63;;
67156;SDS011;54086;50.126;8.710;2023-05-20T07:13:22;10.07;;;5.53;;
67156;SDS011;54086;50.126;8.710;2023-05-20T07:15:48;11.50;;;6.40;;
67156;SDS011;54086;50.126;8.710;2023-05-20T07:18:14;12.95;;;6.35;;
67156;SDS011;54086;50.126;8.710;2023-05-20T07:20:40;11.38;;;6.30;;
67156;SDS011;54086;50.126;8.710;2023-05-20T07:23:05;10.03;;;6.30;;
67156;SDS011;54086;50.126;8.710;2023-05-20T07:25:31;12.30;;;7.07;;
67156;SDS011;54086;50.126;8.710;2023-05-20T07:27:56;12.45;;;6.00;;
67156;SDS011;54086;50.126;8.710;2023-05-20T07:30:21;10.37;;;6.07;;
67156;SDS011;54086;50.126;8.710;2023-05-20T07:32:47;9.60;;;6.17;;
67156;SDS011;54086;50.126;8.710;2023-05-20T07:35:12;10.93;;;6.73;;
67156;SDS011;54086;50.126;8.710;2023-05-20T07:37:37;11.55;;;6.45;;
67156;SDS011;54086;50.126;8.710;2023-05-20T07:40:03;11.00;;;7.07;;
67156;SDS011;54086;50.126;8.710;2023-05-20T07:42:29;10.10;;;6.65;;
67156;SDS011;54086;50.126;8.710;2023-05-20T07:44:55;10.13;;;6.40;;
67156;SDS011;54086;50.126;8.710;2023-05-20T07:47:20;10.80;;;6.73;;
67156;SDS011;54086;50.126;8.710;2023-05-20T07:49:46;12.50;;;7.25;;
67156;SDS011;54086;50.126;8.710;2023-05-20T07:52:11;14.53;;;6.93;;
67156;SDS011;54086;50.126;8.710;2023-05-20T07:54:37;12.70;;;6.27;;
67156;SDS011;54086;50.126;8.710;2023-05-20T07:57:02;14.27;;;7.15;;
67156;SDS011;54086;50.126;8.710;2023-05-20T07:59:28;12.30;;;7.47;;
67156;SDS011;54086;50.126;8.710;2023-05-20T08:01:53;12.13;;;6.70;;
67156;SDS011;54086;50.126;8.710;2023-05-20T08:04:19;12.90;;;7.20;;
67156;SDS011;54086;50.126;8.710;2023-05-20T08:06:44;12.57;;;7.20;;
67156;SDS011;54086;50.126;8.710;2023-05-20T08:09:10;12.20;;;6.93;;
67156;SDS011;54086;50.126;8.710;2023-05-20T08:11:36;11.60;;;7.50;;
67156;SDS011;54086;50.126;8.710;2023-05-20T08:14:01;12.60;;;7.63;;
67156;SDS011;54086;50.126;8.710;2023-05-20T08:16:27;11.60;;;7.67;;
67156;SDS011;54086;50.126;8.710;2023-05-20T08:18:52;11.43;;;7.03;;
67156;SDS011;54086;50.126;8.710;2023-05-20T08:21:18;12.13;;;7.43;;
67156;SDS011;54086;50.126;8.710;2023-05-20T08:23:43;14.90;;;6.75;;
67156;SDS011;54086;50.126;8.710;2023-05-20T08:26:09;12.23;;;7.07;;
67156;SDS011;54086;50.126;8.710;2023-05-20T08:28:34;11.53;;;7.23;;
67156;SDS011;54086;50.126;8.710;2023-05-20T08:31:01;13.27;;;7.43;;
67156;SDS011;54086;50.126;8.710;2023-05-20T08:33:27;11.27;;;7.10;;
67156;SDS011;54086;50.126;8.710;2023-05-20T08:35:52;11.93;;;7.10;;
67156;SDS011;54086;50.126;8.710;2023-05-20T08:38:18;12.27;;;7.07;;
67156;SDS011;54086;50.126;8.710;2023-05-20T08:40:43;12.07;;;6.73;;
67156;SDS011;54086;50.126;8.710;2023-05-20T08:43:09;12.57;;;7.38;;
67156;SDS011;54086;50.126;8.710;2023-05-20T08:45:36;11.00;;;7.53;;
67156;SDS011;54086;50.126;8.710;2023-05-20T08:48:03;12.57;;;7.40;;
67156;SDS011;54086;50.126;8.710;2023-05-20T08:50:31;14.82;;;7.60;;
67156;SDS011;54086;50.126;8.710;2023-05-20T08:53:00;11.63;;;7.32;;
67156;SDS011;54086;50.126;8.710;2023-05-20T08:55:29;14.43;;;7.97;;
67156;SDS011;54086;50.126;8.710;2023-05-20T08:58:02;12.02;;;7.35;;
67156;SDS011;54086;50.126;8.710;2023-05-20T09:00:27;12.40;;;7.97;;
67156;SDS011;54086;50.126;8.710;2023-05-20T09:02:53;14.03;;;8.00;;
67156;SDS011;54086;50.126;8.710;2023-05-20T09:05:20;12.93;;;8.37;;
67156;SDS011;54086;50.126;8.710;2023-05-20T09:07:46;12.73;;;8.10;;
67156;SDS011;54086;50.126;8.710;2023-05-20T09:10:12;11.55;;;7.47;;
67156;SDS011;54086;50.126;8.710;2023-05-20T09:12:38;13.97;;;7.43;;
67156;SDS011;54086;50.126;8.710;2023-05-20T09:15:03;12.45;;;8.20;;
67156;SDS011;54086;50.126;8.710;2023-05-20T09:17:30;12.50;;;7.73;;
67156;SDS011;54086;50.126;8.710;2023-05-20T09:19:56;14.45;;;8.02;;
67156;SDS011;54086;50.126;8.710;2023-05-20T09:22:25;13.13;;;7.20;;
67156;SDS011;54086;50.126;8.710;2023-05-20T09:24:52;13.52;;;8.00;;
67156;SDS011;54086;50.126;8.710;2023-05-20T09:27:18;13.18;;;8.20;;
67156;SDS011;54086;50.126;8.710;2023-05-20T09:29:46;11.63;;;7.30;;
67156;SDS011;54086;50.126;8.710;2023-05-20T09:32:12;12.00;;;7.47;;
67156;SDS011;54086;50.126;8.710;2023-05-20T09:34:38;11.07;;;7.23;;
67156;SDS011;54086;50.126;8.710;2023-05-20T09:37:06;11.38;;;7.30;;
67156;SDS011;54086;50.126;8.710;2023-05-20T09:39:32;11.50;;;9.20;;
67156;SDS011;54086;50.126;8.710;2023-05-20T09:42:23;15.07;;;9.20;;
67156;SDS011;54086;50.126;8.710;2023-05-20T09:44:52;11.27;;;7.57;;
67156;SDS011;54086;50.126;8.710;2023-05-20T09:47:18;10.63;;;7.60;;
67156;SDS011;54086;50.126;8.710;2023-05-20T09:49:44;11.73;;;7.50;;
67156;SDS011;54086;50.126;8.710;2023-05-20T09:52:11;11.48;;;6.95;;
67156;SDS011;54086;50.126;8.710;2023-05-20T09:54:39;14.23;;;7.60;;
67156;SDS011;54086;50.126;8.710;2023-05-20T09:57:06;12.77;;;7.05;;
67156;SDS011;54086;50.126;8.710;2023-05-20T09:59:31;12.50;;;7.60;;
67156;SDS011;54086;50.126;8.710;2023-05-20T10:01:57;11.07;;;7.28;;
67156;SDS011;54086;50.126;8.710;2023-05-20T10:04:23;12.70;;;7.63;;
67156;SDS011;54086;50.126;8.710;2023-05-20T10:07:01;11.55;;;7.20;;
67156;SDS011;54086;50.126;8.710;2023-05-20T10:09:43;20.35;;;8.13;;
67156;SDS011;54086;50.126;8.710;2023-05-20T10:15:06;11.32;;;7.95;;
67156;SDS011;54086;50.126;8.710;2023-05-20T10:17:43;11.57;;;7.30;;
67156;SDS011;54086;50.126;8.710;2023-05-20T10:20:10;12.30;;;8.20;;
67156;SDS011;54086;50.126;8.710;2023-05-20T10:22:36;12.32;;;8.38;;
67156;SDS011;54086;50.126;8.710;2023-05-20T10:25:04;12.18;;;8.00;;
67156;SDS011;54086;50.126;8.710;2023-05-20T10:27:41;12.23;;;7.95;;
67156;SDS011;54086;50.126;8.710;2023-05-20T10:30:17;12.90;;;7.50;;
67156;SDS011;54086;50.126;8.710;2023-05-20T10:32:53;12.18;;;7.55;;
67156;SDS011;54086;50.126;8.710;2023-05-20T10:35:24;13.93;;;7.68;;
67156;SDS011;54086;50.126;8.710;2023-05-20T10:37:52;11.50;;;7.65;;
67156;SDS011;54086;50.126;8.710;2023-05-20T10:40:19;10.90;;;7.57;;
67156;SDS011;54086;50.126;8.710;2023-05-20T10:42:46;11.63;;;7.40;;
67156;SDS011;54086;50.126;8.710;2023-05-20T10:45:26;13.88;;;7.50;;
67156;SDS011;54086;50.126;8.710;2023-05-20T10:47:55;11.38;;;7.55;;
67156;SDS011;54086;50.126;8.710;2023-05-20T10:50:56;14.32;;;8.20;;
67156;SDS011;54086;50.126;8.710;2023-05-20T10:53:14;11.52;;;7.38;;
67156;SDS011;54086;50.126;8.710;2023-05-20T10:55:40;11.63;;;7.93;;
67156;SDS011;54086;50.126;8.710;2023-05-20T10:58:11;11.32;;;7.45;;
67156;SDS011;54086;50.126;8.710;2023-05-20T11:00:38;11.30;;;7.32;;
67156;SDS011;54086;50.126;8.710;2023-05-20T11:03:05;10.93;;;7.20;;
67156;SDS011;54086;50.126;8.710;2023-05-20T11:05:31;11.37;;;7.70;;
67156;SDS011;54086;50.126;8.710;2023-05-20T11:08:00;14.48;;;7.88;;
67156;SDS011;54086;50.126;8.710;2023-05-20T11:10:30;11.02;;;6.75;;
67156;SDS011;54086;50.126;8.710;2023-05-20T11:12:56;11.30;;;7.07;;
67156;SDS011;54086;50.126;8.710;2023-05-20T11:15:23;11.65;;;6.78;;
67156;SDS011;54086;50.126;8.710;2023-05-20T11:17:55;11.55;;;7.00;;
67156;SDS011;54086;50.126;8.710;2023-05-20T11:20:22;12.25;;;7.32;;
67156;SDS011;54086;50.126;8.710;2023-05-20T11:22:55;10.80;;;6.82;;
67156;SDS011;54086;50.126;8.710;2023-05-20T11:25:21;11.50;;;7.37;;
67156;SDS011;54086;50.126;8.710;2023-05-20T11:27:49;11.68;;;7.03;;
67156;SDS011;54086;50.126;8.710;2023-05-20T11:30:15;11.27;;;6.82;;
67156;SDS011;54086;50.126;8.710;2023-05-20T11:32:55;11.07;;;7.15;;
67156;SDS011;54086;50.126;8.710;2023-05-20T11:35:24;11.48;;;6.95;;
67156;SDS011;54086;50.126;8.710;2023-05-20T11:37:56;11.13;;;7.13;;
67156;SDS011;54086;50.126;8.710;2023-05-20T11:40:27;11.35;;;6.80;;
67156;SDS011;54086;50.126;8.710;2023-05-20T11:42:53;11.23;;;7.28;;
67156;SDS011;54086;50.126;8.710;2023-05-20T11:45:20;10.57;;;6.70;;
67156;SDS011;54086;50.126;8.710;2023-05-20T11:47:45;11.32;;;6.53;;
67156;SDS011;54086;50.126;8.710;2023-05-20T11:50:15;10.47;;;7.07;;
67156;SDS011;54086;50.126;8.710;2023-05-20T11:52:42;11.20;;;7.00;;
67156;SDS011;54086;50.126;8.710;2023-05-20T11:55:13;12.10;;;6.90;;
67156;SDS011;54086;50.126;8.710;2023-05-20T11:57:39;10.02;;;6.68;;
67156;SDS011;54086;50.126;8.710;2023-05-20T12:00:05;11.65;;;7.40;;
67156;SDS011;54086;50.126;8.710;2023-05-20T12:02:32;11.93;;;7.03;;
67156;SDS011;54086;50.126;8.710;2023-05-20T12:04:58;10.43;;;7.40;;
67156;SDS011;54086;50.126;8.710;2023-05-20T12:07:23;10.93;;;6.90;;
67156;SDS011;54086;50.126;8.710;2023-05-20T12:09:48;10.60;;;7.13;;
67156;SDS011;54086;50.126;8.710;2023-05-20T12:12:14;10.43;;;7.60;;
67156;SDS011;54086;50.126;8.710;2023-05-20T12:14:40;12.07;;;7.50;;
67156;SDS011;54086;50.126;8.710;2023-05-20T12:17:05;11.63;;;7.35;;
67156;SDS011;54086;50.126;8.710;2023-05-20T12:19:31;12.03;;;7.23;;
67156;SDS011;54086;50.126;8.710;2023-05-20T12:21:56;11.17;;;7.27;;
67156;SDS011;54086;50.126;8.710;2023-05-20T12:24:22;11.57;;;6.73;;
67156;SDS011;54086;50.126;8.710;2023-05-20T12:26:47;10.33;;;7.23;;
67156;SDS011;54086;50.126;8.710;2023-05-20T12:29:12;11.20;;;7.40;;
67156;SDS011;54086;50.126;8.710;2023-05-20T12:31:38;11.83;;;7.60;;
67156;SDS011;54086;50.126;8.710;2023-05-20T12:34:03;11.13;;;6.80;;
67156;SDS011;54086;50.126;8.710;2023-05-20T12:36:28;10.40;;;7.00;;
67156;SDS011;54086;50.126;8.710;2023-05-20T12:38:54;10.50;;;7.25;;
67156;SDS011;54086;50.126;8.710;2023-05-20T12:41:19;11.70;;;7.93;;
67156;SDS011;54086;50.126;8.710;2023-05-20T12:43:45;11.30;;;7.65;;
67156;SDS011;54086;50.126;8.710;2023-05-20T12:46:11;13.07;;;7.70;;
67156;SDS011;54086;50.126;8.710;2023-05-20T12:48:36;10.33;;;7.00;;
67156;SDS011;54086;50.126;8.710;2023-05-20T12:51:01;11.00;;;7.27;;
67156;SDS011;54086;50.126;8.710;2023-05-20T12:53:27;11.70;;;8.10;;
67156;SDS011;54086;50.126;8.710;2023-05-20T12:55:52;13.07;;;8.00;;
67156;SDS011;54086;50.126;8.710;2023-05-20T12:58:18;10.90;;;8.37;;
67156;SDS011;54086;50.126;8.710;2023-05-20T13:00:43;11.93;;;8.43;;
67156;SDS011;54086;50.126;8.710;2023-05-20T13:03:08;12.37;;;7.90;;
67156;SDS011;54086;50.126;8.710;2023-05-20T13:05:35;12.00;;;7.88;;
67156;SDS011;54086;50.126;8.710;2023-05-20T13:08:00;13.03;;;8.03;;
67156;SDS011;54086;50.126;8.710;2023-05-20T13:10:26;11.80;;;7.83;;
67156;SDS011;54086;50.126;8.710;2023-05-20T13:12:51;10.35;;;7.32;;
67156;SDS011;54086;50.126;8.710;2023-05-20T13:15:17;11.70;;;7.53;;
67156;SDS011;54086;50.126;8.710;2023-05-20T13:17:42;11.02;;;7.63;;
67156;SDS011;54086;50.126;8.710;2023-05-20T13:20:08;10.73;;;7.50;;
67156;SDS011;54086;50.126;8.710;2023-05-20T13:22:35;12.30;;;7.30;;
67156;SDS011;54086;50.126;8.710;2023-05-20T13:25:00;12.88;;;8.02;;
67156;SDS011;54086;50.126;8.710;2023-05-20T13:27:26;13.50;;;7.90;;
67156;SDS011;54086;50.126;8.710;2023-05-20T13:29:51;12.10;;;8.38;;
67156;SDS011;54086;50.126;8.710;2023-05-20T13:32:17;12.83;;;8.60;;
67156;SDS011;54086;50.126;8.710;2023-05-20T13:34:42;12.87;;;8.00;;
67156;SDS011;54086;50.126;8.710;2023-05-20T13:37:08;11.50;;;8.07;;
67156;SDS011;54086;50.126;8.710;2023-05-20T13:39:33;12.85;;;8.70;;
67156;SDS011;54086;50.126;8.710;2023-05-20T13:41:59;11.33;;;8.10;;
67156;SDS011;54086;50.126;8.710;2023-05-20T13:44:24;13.60;;;8.17;;
67156;SDS011;54086;50.126;8.710;2023-05-20T13:46:50;10.57;;;7.57;;
67156;SDS011;54086;50.126;8.710;2023-05-20T13:49:15;11.40;;;8.03;;
67156;SDS011;54086;50.126;8.710;2023-05-20T13:51:41;10.73;;;7.80;;
67156;SDS011;54086;50.126;8.710;2023-05-20T13:54:07;10.70;;;7.53;;
67156;SDS011;54086;50.126;8.710;2023-05-20T13:56:32;12.17;;;8.17;;
67156;SDS011;54086;50.126;8.710;2023-05-20T13:58:59;11.77;;;7.75;;
67156;SDS011;54086;50.126;8.710;2023-05-20T14:01:25;11.77;;;7.88;;
67156;SDS011;54086;50.126;8.710;2023-05-20T14:03:52;12.02;;;8.10;;
67156;SDS011;54086;50.126;8.710;2023-05-20T14:06:18;11.57;;;8.27;;
67156;SDS011;54086;50.126;8.710;2023-05-20T14:08:44;12.60;;;8.77;;
67156;SDS011;54086;50.126;8.710;2023-05-20T14:11:10;11.52;;;8.02;;
67156;SDS011;54086;50.126;8.710;2023-05-20T14:13:35;11.53;;;7.60;;
67156;SDS011;54086;50.126;8.710;2023-05-20T14:16:01;11.77;;;8.02;;
67156;SDS011;54086;50.126;8.710;2023-05-20T14:18:29;13.02;;;8.70;;
67156;SDS011;54086;50.126;8.710;2023-05-20T14:20:54;11.30;;;7.83;;
67156;SDS011;54086;50.126;8.710;2023-05-20T14:23:20;12.07;;;8.27;;
67156;SDS011;54086;50.126;8.710;2023-05-20T14:25:45;13.38;;;8.13;;
67156;SDS011;54086;50.126;8.710;2023-05-20T14:28:11;11.63;;;7.97;;
67156;SDS011;54086;50.126;8.710;2023-05-20T14:30:36;11.23;;;8.23;;
67156;SDS011;54086;50.126;8.710;2023-05-20T14:33:02;12.53;;;8.63;;
67156;SDS011;54086;50.126;8.710;2023-05-20T14:35:27;11.60;;;8.20;;
67156;SDS011;54086;50.126;8.710;2023-05-20T14:37:52;11.90;;;8.40;;
67156;SDS011;54086;50.126;8.710;2023-05-20T14:40:18;12.70;;;7.90;;